sensor_id;sensor_type;location;lat;lon;timestamp;temperature;humidity
58951;DHT22;44730;53.158;6.398;2022-08-16T00:00:05;20.70;99.90
58951;DHT22;44730;53.158;6.398;2022-08-16T00:02:32;20.70;99.90
58951;DHT22;44730;53.158;6.398;2022-08-16T00:04:59;20.60;99.90
58951;DHT22;44730;53.158;6.398;2022-08-16T00:07:25;20.60;99.90
58951;DHT22;44730;53.158;6.398;2022-08-16T00:09:51;20.60;99.90
58951;DHT22;44730;53.158;6.398;2022-08-16T00:12:17;20.60;99.90
58951;DHT22;44730;53.158;6.398;2022-08-16T00:14:42;20.60;99.90
58951;DHT22;44730;53.158;6.398;2022-08-16T00:17:08;20.60;99.90
58951;DHT22;44730;53.158;6.398;2022-08-16T00:19:34;20.60;99.90
58951;DHT22;44730;53.158;6.398;2022-08-16T00:22:00;20.60;99.90
58951;DHT22;44730;53.158;6.398;2022-08-16T00:24:28;20.50;99.90
58951;DHT22;44730;53.158;6.398;2022-08-16T00:26:54;20.60;99.90
58951;DHT22;44730;53.158;6.398;2022-08-16T00:29:20;20.50;99.90
58951;DHT22;44730;53.158;6.398;2022-08-16T00:31:48;20.60;99.90
58951;DHT22;44730;53.158;6.398;2022-08-16T00:34:17;20.50;99.90
58951;DHT22;44730;53.158;6.398;2022-08-16T00:36:43;20.50;99.90
58951;DHT22;44730;53.158;6.398;2022-08-16T00:39:12;20.50;99.90
58951;DHT22;44730;53.158;6.398;2022-08-16T00:41:39;20.50;99.90
58951;DHT22;44730;53.158;6.398;2022-08-16T00:44:05;20.50;99.90
58951;DHT22;44730;53.158;6.398;2022-08-16T00:46:57;20.50;99.90
58951;DHT22;44730;53.158;6.398;2022-08-16T00:49:27;20.50;99.90
58951;DHT22;44730;53.158;6.398;2022-08-16T00:51:53;20.50;99.90
58951;DHT22;44730;53.158;6.398;2022-08-16T00:54:20;20.40;99.90
58951;DHT22;44730;53.158;6.398;2022-08-16T00:56:49;20.40;99.90
58951;DHT22;44730;53.158;6.398;2022-08-16T00:59:17;20.40;99.90
58951;DHT22;44730;53.158;6.398;2022-08-16T01:01:44;20.40;99.90
58951;DHT22;44730;53.158;6.398;2022-08-16T01:04:11;20.40;99.90
58951;DHT22;44730;53.158;6.398;2022-08-16T01:06:38;20.40;99.90
58951;DHT22;44730;53.158;6.398;2022-08-16T01:09:05;20.30;99.90
58951;DHT22;44730;53.158;6.398;2022-08-16T01:11:35;20.30;99.90
58951;DHT22;44730;53.158;6.398;2022-08-16T01:14:24;20.30;99.90
58951;DHT22;44730;53.158;6.398;2022-08-16T01:16:51;20.30;99.90
58951;DHT22;44730;53.158;6.398;2022-08-16T01:19:37;20.30;99.90
58951;DHT22;44730;53.158;6.398;2022-08-16T01:22:25;20.30;99.90
58951;DHT22;44730;53.158;6.398;2022-08-16T01:25:05;20.30;99.90
58951;DHT22;44730;53.158;6.398;2022-08-16T01:27:54;20.30;99.90
58951;DHT22;44730;53.158;6.398;2022-08-16T01:30:32;20.30;99.90
58951;DHT22;44730;53.158;6.398;2022-08-16T01:33:00;20.30;99.90
58951;DHT22;44730;53.158;6.398;2022-08-16T01:35:31;20.30;99.90
58951;DHT22;44730;53.158;6.398;2022-08-16T01:40:40;20.20;99.90
58951;DHT22;44730;53.158;6.398;2022-08-16T01:43:06;20.20;99.90
58951;DHT22;44730;53.158;6.398;2022-08-16T01:45:33;20.20;99.90
58951;DHT22;44730;53.158;6.398;2022-08-16T01:48:00;20.20;99.90
58951;DHT22;44730;53.158;6.398;2022-08-16T01:50:27;20.20;99.90
58951;DHT22;44730;53.158;6.398;2022-08-16T01:52:53;20.00;99.90
58951;DHT22;44730;53.158;6.398;2022-08-16T01:55:23;20.20;99.90
58951;DHT22;44730;53.158;6.398;2022-08-16T01:57:50;20.20;99.90
58951;DHT22;44730;53.158;6.398;2022-08-16T02:00:17;20.20;99.90
58951;DHT22;44730;53.158;6.398;2022-08-16T02:02:43;20.10;99.90
58951;DHT22;44730;53.158;6.398;2022-08-16T02:05:10;20.10;99.90
58951;DHT22;44730;53.158;6.398;2022-08-16T02:07:37;20.10;99.90
58951;DHT22;44730;53.158;6.398;2022-08-16T02:10:09;20.10;99.90
58951;DHT22;44730;53.158;6.398;2022-08-16T02:12:35;20.10;99.90
58951;DHT22;44730;53.158;6.398;2022-08-16T02:15:03;20.10;99.90
58951;DHT22;44730;53.158;6.398;2022-08-16T02:17:29;20.10;99.90
58951;DHT22;44730;53.158;6.398;2022-08-16T02:19:55;20.20;99.90
58951;DHT22;44730;53.158;6.398;2022-08-16T02:22:23;20.10;99.90
58951;DHT22;44730;53.158;6.398;2022-08-16T02:24:49;20.10;99.90
58951;DHT22;44730;53.158;6.398;2022-08-16T02:27:16;20.10;99.90
58951;DHT22;44730;53.158;6.398;2022-08-16T02:29:42;20.20;99.90
58951;DHT22;44730;53.158;6.398;2022-08-16T02:32:10;20.20;99.90
58951;DHT22;44730;53.158;6.398;2022-08-16T02:34:36;20.20;99.90
58951;DHT22;44730;53.158;6.398;2022-08-16T02:37:02;20.20;99.90
58951;DHT22;44730;53.158;6.398;2022-08-16T02:39:28;20.20;99.90
58951;DHT22;44730;53.158;6.398;2022-08-16T02:41:54;20.20;99.90
58951;DHT22;44730;53.158;6.398;2022-08-16T02:44:21;20.20;99.90
58951;DHT22;44730;53.158;6.398;2022-08-16T02:46:47;20.20;99.90
58951;DHT22;44730;53.158;6.398;2022-08-16T02:49:13;20.20;99.90
58951;DHT22;44730;53.158;6.398;2022-08-16T02:51:41;20.20;99.90
58951;DHT22;44730;53.158;6.398;2022-08-16T02:54:10;20.20;99.90
58951;DHT22;44730;53.158;6.398;2022-08-16T02:56:38;20.20;99.90
58951;DHT22;44730;53.158;6.398;2022-08-16T02:59:04;20.20;99.90
58951;DHT22;44730;53.158;6.398;2022-08-16T03:01:31;20.10;99.90
58951;DHT22;44730;53.158;6.398;2022-08-16T03:03:59;20.10;99.90
58951;DHT22;44730;53.158;6.398;2022-08-16T03:06:26;20.10;99.90
58951;DHT22;44730;53.158;6.398;2022-08-16T03:08:59;20.10;99.90
58951;DHT22;44730;53.158;6.398;2022-08-16T03:11:25;20.10;99.90
58951;DHT22;44730;53.158;6.398;2022-08-16T03:13:53;20.10;99.90
58951;DHT22;44730;53.158;6.398;2022-08-16T03:16:21;20.00;99.90
58951;DHT22;44730;53.158;6.398;2022-08-16T03:18:47;20.00;99.90
58951;DHT22;44730;53.158;6.398;2022-08-16T03:21:13;19.90;99.90
58951;DHT22;44730;53.158;6.398;2022-08-16T03:23:43;19.90;99.90
58951;DHT22;44730;53.158;6.398;2022-08-16T03:26:09;19.90;99.90
58951;DHT22;44730;53.158;6.398;2022-08-16T03:28:35;19.80;99.90
58951;DHT22;44730;53.158;6.398;2022-08-16T03:31:00;19.80;99.90
58951;DHT22;44730;53.158;6.398;2022-08-16T03:33:27;19.70;99.90
58951;DHT22;44730;53.158;6.398;2022-08-16T03:35:53;19.70;99.90
58951;DHT22;44730;53.158;6.398;2022-08-16T03:38:26;19.70;99.90
58951;DHT22;44730;53.158;6.398;2022-08-16T03:40:58;19.60;99.90
58951;DHT22;44730;53.158;6.398;2022-08-16T03:43:26;19.50;99.90
58951;DHT22;44730;53.158;6.398;2022-08-16T03:45:53;19.40;99.90
58951;DHT22;44730;53.158;6.398;2022-08-16T03:48:33;19.40;99.90
58951;DHT22;44730;53.158;6.398;2022-08-16T03:51:08;19.30;99.90
58951;DHT22;44730;53.158;6.398;2022-08-16T03:53:34;19.30;99.90
58951;DHT22;44730;53.158;6.398;2022-08-16T03:56:00;19.20;99.90
58951;DHT22;44730;53.158;6.398;2022-08-16T03:58:26;19.20;99.90
58951;DHT22;44730;53.158;6.398;2022-08-16T04:00:51;19.10;99.90
58951;DHT22;44730;53.158;6.398;2022-08-16T04:03:20;19.10;99.90
58951;DHT22;44730;53.158;6.398;2022-08-16T04:05:47;19.10;99.90
58951;DHT22;44730;53.158;6.398;2022-08-16T04:08:16;19.00;99.90
58951;DHT22;44730;53.158;6.398;2022-08-16T04:10:44;19.00;99.90
58951;DHT22;44730;53.158;6.398;2022-08-16T04:13:10;19.00;99.90
58951;DHT22;44730;53.158;6.398;2022-08-16T04:15:35;18.90;99.90
58951;DHT22;44730;53.158;6.398;2022-08-16T04:18:04;18.90;99.90
58951;DHT22;44730;53.158;6.398;2022-08-16T04:20:31;18.80;99.90
58951;DHT22;44730;53.158;6.398;2022-08-16T04:22:57;18.80;99.90
58951;DHT22;44730;53.158;6.398;2022-08-16T04:25:23;18.80;99.90
58951;DHT22;44730;53.158;6.398;2022-08-16T04:27:50;18.80;99.90
58951;DHT22;44730;53.158;6.398;2022-08-16T04:30:18;18.80;99.90
58951;DHT22;44730;53.158;6.398;2022-08-16T04:32:44;18.70;99.90
58951;DHT22;44730;53.158;6.398;2022-08-16T04:35:14;18.70;99.90
58951;DHT22;44730;53.158;6.398;2022-08-16T04:37:42;18.70;99.90
58951;DHT22;44730;53.158;6.398;2022-08-16T04:40:08;18.70;99.90
58951;DHT22;44730;53.158;6.398;2022-08-16T04:42:37;18.70;99.90
58951;DHT22;44730;53.158;6.398;2022-08-16T04:45:06;18.80;99.90
58951;DHT22;44730;53.158;6.398;2022-08-16T04:47:32;18.80;99.90
58951;DHT22;44730;53.158;6.398;2022-08-16T04:50:08;18.80;99.90
58951;DHT22;44730;53.158;6.398;2022-08-16T04:52:35;18.80;99.90
58951;DHT22;44730;53.158;6.398;2022-08-16T04:55:16;18.80;99.90
58951;DHT22;44730;53.158;6.398;2022-08-16T04:57:44;18.80;99.90
58951;DHT22;44730;53.158;6.398;2022-08-16T05:00:18;18.80;99.90
58951;DHT22;44730;53.158;6.398;2022-08-16T05:02:44;18.90;99.90
58951;DHT22;44730;53.158;6.398;2022-08-16T05:05:11;18.90;99.90
58951;DHT22;44730;53.158;6.398;2022-08-16T05:07:37;18.90;99.90
58951;DHT22;44730;53.158;6.398;2022-08-16T05:10:05;19.00;99.90
58951;DHT22;44730;53.158;6.398;2022-08-16T05:12:31;19.00;99.90
58951;DHT22;44730;53.158;6.398;2022-08-16T05:14:57;19.10;99.90
58951;DHT22;44730;53.158;6.398;2022-08-16T05:17:23;19.20;99.90
58951;DHT22;44730;53.158;6.398;2022-08-16T05:19:49;19.20;99.90
58951;DHT22;44730;53.158;6.398;2022-08-16T05:22:14;19.40;99.90
58951;DHT22;44730;53.158;6.398;2022-08-16T05:24:42;19.50;99.90
58951;DHT22;44730;53.158;6.398;2022-08-16T05:27:09;19.60;99.90
58951;DHT22;44730;53.158;6.398;2022-08-16T05:29:35;19.70;99.90
58951;DHT22;44730;53.158;6.398;2022-08-16T05:32:01;19.90;99.90
58951;DHT22;44730;53.158;6.398;2022-08-16T05:34:28;20.00;99.90
58951;DHT22;44730;53.158;6.398;2022-08-16T05:37:01;20.20;99.90
58951;DHT22;44730;53.158;6.398;2022-08-16T05:39:27;20.30;99.90
58951;DHT22;44730;53.158;6.398;2022-08-16T05:41:53;20.50;99.90
58951;DHT22;44730;53.158;6.398;2022-08-16T05:44:21;20.70;99.90
58951;DHT22;44730;53.158;6.398;2022-08-16T05:46:48;20.80;99.90
58951;DHT22;44730;53.158;6.398;2022-08-16T05:49:15;20.90;99.90
58951;DHT22;44730;53.158;6.398;2022-08-16T05:51:45;21.10;99.90
58951;DHT22;44730;53.158;6.398;2022-08-16T05:54:14;21.30;99.90
58951;DHT22;44730;53.158;6.398;2022-08-16T05:56:42;21.40;99.90
58951;DHT22;44730;53.158;6.398;2022-08-16T05:59:13;21.60;99.90
58951;DHT22;44730;53.158;6.398;2022-08-16T06:01:40;21.80;99.90
58951;DHT22;44730;53.158;6.398;2022-08-16T06:04:08;22.00;99.90
58951;DHT22;44730;53.158;6.398;2022-08-16T06:06:34;22.00;99.90
58951;DHT22;44730;53.158;6.398;2022-08-16T06:09:00;21.90;99.90
58951;DHT22;44730;53.158;6.398;2022-08-16T06:11:25;21.90;99.90
58951;DHT22;44730;53.158;6.398;2022-08-16T06:13:53;22.00;99.90
58951;DHT22;44730;53.158;6.398;2022-08-16T06:16:18;22.30;99.90
58951;DHT22;44730;53.158;6.398;2022-08-16T06:18:46;22.50;99.90
58951;DHT22;44730;53.158;6.398;2022-08-16T06:21:12;22.70;99.90
58951;DHT22;44730;53.158;6.398;2022-08-16T06:23:39;22.80;99.90
58951;DHT22;44730;53.158;6.398;2022-08-16T06:26:05;23.00;99.90
58951;DHT22;44730;53.158;6.398;2022-08-16T06:28:38;23.10;99.90
58951;DHT22;44730;53.158;6.398;2022-08-16T06:31:05;23.30;99.90
58951;DHT22;44730;53.158;6.398;2022-08-16T06:33:31;23.30;99.90
58951;DHT22;44730;53.158;6.398;2022-08-16T06:35:57;23.40;99.90
58951;DHT22;44730;53.158;6.398;2022-08-16T06:38:23;23.60;99.90
58951;DHT22;44730;53.158;6.398;2022-08-16T06:40:49;23.60;99.90
58951;DHT22;44730;53.158;6.398;2022-08-16T06:43:16;23.60;99.90
58951;DHT22;44730;53.158;6.398;2022-08-16T06:45:44;23.80;99.90
58951;DHT22;44730;53.158;6.398;2022-08-16T06:48:11;23.90;99.90
58951;DHT22;44730;53.158;6.398;2022-08-16T06:50:37;24.10;99.90
58951;DHT22;44730;53.158;6.398;2022-08-16T06:53:03;24.20;99.90
58951;DHT22;44730;53.158;6.398;2022-08-16T06:55:29;24.30;99.90
58951;DHT22;44730;53.158;6.398;2022-08-16T06:57:55;24.50;99.90
58951;DHT22;44730;53.158;6.398;2022-08-16T07:00:23;24.60;99.90
58951;DHT22;44730;53.158;6.398;2022-08-16T07:02:51;24.60;99.90
58951;DHT22;44730;53.158;6.398;2022-08-16T07:05:18;24.70;99.90
58951;DHT22;44730;53.158;6.398;2022-08-16T07:07:46;24.80;99.90
58951;DHT22;44730;53.158;6.398;2022-08-16T07:10:13;25.00;99.90
58951;DHT22;44730;53.158;6.398;2022-08-16T07:12:41;25.10;99.90
58951;DHT22;44730;53.158;6.398;2022-08-16T07:15:08;25.30;99.90
58951;DHT22;44730;53.158;6.398;2022-08-16T07:17:34;25.50;99.90
58951;DHT22;44730;53.158;6.398;2022-08-16T07:20:04;25.60;99.90
58951;DHT22;44730;53.158;6.398;2022-08-16T07:22:31;25.70;99.90
58951;DHT22;44730;53.158;6.398;2022-08-16T07:24:56;25.80;99.90
58951;DHT22;44730;53.158;6.398;2022-08-16T07:27:22;25.90;99.90
58951;DHT22;44730;53.158;6.398;2022-08-16T07:29:48;26.00;99.90
58951;DHT22;44730;53.158;6.398;2022-08-16T07:32:14;26.10;99.90
58951;DHT22;44730;53.158;6.398;2022-08-16T07:34:40;26.00;99.90
58951;DHT22;44730;53.158;6.398;2022-08-16T07:37:09;25.90;99.90
58951;DHT22;44730;53.158;6.398;2022-08-16T07:39:35;25.90;99.90
58951;DHT22;44730;53.158;6.398;2022-08-16T07:42:01;26.00;99.90
58951;DHT22;44730;53.158;6.398;2022-08-16T07:44:27;26.20;99.90
58951;DHT22;44730;53.158;6.398;2022-08-16T07:46:53;26.40;99.90
58951;DHT22;44730;53.158;6.398;2022-08-16T07:49:19;26.50;99.90
58951;DHT22;44730;53.158;6.398;2022-08-16T07:51:45;26.70;99.90
58951;DHT22;44730;53.158;6.398;2022-08-16T07:54:13;26.80;99.90
58951;DHT22;44730;53.158;6.398;2022-08-16T07:56:38;27.00;99.90
58951;DHT22;44730;53.158;6.398;2022-08-16T07:59:05;27.00;99.90
58951;DHT22;44730;53.158;6.398;2022-08-16T08:01:32;27.00;99.90
58951;DHT22;44730;53.158;6.398;2022-08-16T08:03:59;27.10;99.90
58951;DHT22;44730;53.158;6.398;2022-08-16T08:06:28;27.30;99.90
58951;DHT22;44730;53.158;6.398;2022-08-16T08:08:55;27.40;99.90
58951;DHT22;44730;53.158;6.398;2022-08-16T08:11:22;27.50;99.90
58951;DHT22;44730;53.158;6.398;2022-08-16T08:13:50;27.70;99.90
58951;DHT22;44730;53.158;6.398;2022-08-16T08:16:16;27.90;99.90
58951;DHT22;44730;53.158;6.398;2022-08-16T08:18:41;28.10;99.90
58951;DHT22;44730;53.158;6.398;2022-08-16T08:21:09;28.40;99.90
58951;DHT22;44730;53.158;6.398;2022-08-16T08:23:35;28.60;99.90
58951;DHT22;44730;53.158;6.398;2022-08-16T08:26:02;28.80;99.90
58951;DHT22;44730;53.158;6.398;2022-08-16T08:28:28;29.00;99.90
58951;DHT22;44730;53.158;6.398;2022-08-16T08:30:57;29.20;99.90
58951;DHT22;44730;53.158;6.398;2022-08-16T08:33:23;29.40;99.90
58951;DHT22;44730;53.158;6.398;2022-08-16T08:35:49;29.50;99.90
58951;DHT22;44730;53.158;6.398;2022-08-16T08:38:15;29.40;99.90
58951;DHT22;44730;53.158;6.398;2022-08-16T08:40:42;29.60;99.90
58951;DHT22;44730;53.158;6.398;2022-08-16T08:43:11;29.70;99.90
58951;DHT22;44730;53.158;6.398;2022-08-16T08:45:41;29.70;99.90
58951;DHT22;44730;53.158;6.398;2022-08-16T08:48:08;29.70;99.90
58951;DHT22;44730;53.158;6.398;2022-08-16T08:50:34;29.70;99.90
58951;DHT22;44730;53.158;6.398;2022-08-16T08:53:02;29.60;99.90
58951;DHT22;44730;53.158;6.398;2022-08-16T08:55:28;29.60;98.90
58951;DHT22;44730;53.158;6.398;2022-08-16T08:57:56;29.60;99.00
58951;DHT22;44730;53.158;6.398;2022-08-16T09:00:23;29.70;99.50
58951;DHT22;44730;53.158;6.398;2022-08-16T09:02:49;29.80;99.60
58951;DHT22;44730;53.158;6.398;2022-08-16T09:05:17;29.90;99.50
58951;DHT22;44730;53.158;6.398;2022-08-16T09:07:44;30.10;99.80
58951;DHT22;44730;53.158;6.398;2022-08-16T09:10:11;30.20;97.70
58951;DHT22;44730;53.158;6.398;2022-08-16T09:12:38;30.30;98.10
58951;DHT22;44730;53.158;6.398;2022-08-16T09:15:11;30.40;98.40
58951;DHT22;44730;53.158;6.398;2022-08-16T09:17:37;30.50;96.70
58951;DHT22;44730;53.158;6.398;2022-08-16T09:20:05;30.30;97.30
58951;DHT22;44730;53.158;6.398;2022-08-16T09:22:33;30.50;98.40
58951;DHT22;44730;53.158;6.398;2022-08-16T09:24:58;30.50;97.90
58951;DHT22;44730;53.158;6.398;2022-08-16T09:27:42;30.60;97.60
58951;DHT22;44730;53.158;6.398;2022-08-16T09:30:10;30.80;96.10
58951;DHT22;44730;53.158;6.398;2022-08-16T09:32:36;30.90;95.50
58951;DHT22;44730;53.158;6.398;2022-08-16T09:35:04;30.90;95.80
58951;DHT22;44730;53.158;6.398;2022-08-16T09:37:31;30.90;96.40
58951;DHT22;44730;53.158;6.398;2022-08-16T09:39:58;31.10;95.10
58951;DHT22;44730;53.158;6.398;2022-08-16T09:42:25;31.20;95.00
58951;DHT22;44730;53.158;6.398;2022-08-16T09:44:52;31.30;95.50
58951;DHT22;44730;53.158;6.398;2022-08-16T09:47:18;31.40;94.30
58951;DHT22;44730;53.158;6.398;2022-08-16T09:49:50;31.50;93.50
58951;DHT22;44730;53.158;6.398;2022-08-16T09:52:16;31.50;93.30
58951;DHT22;44730;53.158;6.398;2022-08-16T09:54:41;31.50;93.80
58951;DHT22;44730;53.158;6.398;2022-08-16T09:57:07;31.60;94.40
58951;DHT22;44730;53.158;6.398;2022-08-16T09:59:33;31.70;93.70
58951;DHT22;44730;53.158;6.398;2022-08-16T10:01:59;31.80;93.00
58951;DHT22;44730;53.158;6.398;2022-08-16T10:04:25;32.20;93.00
58951;DHT22;44730;53.158;6.398;2022-08-16T10:06:53;32.40;92.20
58951;DHT22;44730;53.158;6.398;2022-08-16T10:09:23;32.60;91.20
58951;DHT22;44730;53.158;6.398;2022-08-16T10:11:49;32.70;90.80
58951;DHT22;44730;53.158;6.398;2022-08-16T10:14:34;32.70;90.50
58951;DHT22;44730;53.158;6.398;2022-08-16T10:17:03;32.70;89.90
58951;DHT22;44730;53.158;6.398;2022-08-16T10:19:30;32.60;90.40
58951;DHT22;44730;53.158;6.398;2022-08-16T10:21:56;32.70;90.50
58951;DHT22;44730;53.158;6.398;2022-08-16T10:24:22;32.80;89.70
58951;DHT22;44730;53.158;6.398;2022-08-16T10:26:48;32.90;86.90
58951;DHT22;44730;53.158;6.398;2022-08-16T10:29:15;32.90;85.80
58951;DHT22;44730;53.158;6.398;2022-08-16T10:31:41;32.90;85.40
58951;DHT22;44730;53.158;6.398;2022-08-16T10:34:07;33.00;85.20
58951;DHT22;44730;53.158;6.398;2022-08-16T10:36:33;33.10;86.00
58951;DHT22;44730;53.158;6.398;2022-08-16T10:38:59;33.00;83.90
58951;DHT22;44730;53.158;6.398;2022-08-16T10:41:27;33.20;83.00
58951;DHT22;44730;53.158;6.398;2022-08-16T10:43:53;33.30;83.40
58951;DHT22;44730;53.158;6.398;2022-08-16T10:46:18;33.30;79.80
58951;DHT22;44730;53.158;6.398;2022-08-16T10:48:45;33.30;80.00
58951;DHT22;44730;53.158;6.398;2022-08-16T10:51:11;33.30;81.00
58951;DHT22;44730;53.158;6.398;2022-08-16T10:53:38;33.50;78.90
58951;DHT22;44730;53.158;6.398;2022-08-16T10:56:06;33.70;78.30
58951;DHT22;44730;53.158;6.398;2022-08-16T10:58:34;33.80;78.90
58951;DHT22;44730;53.158;6.398;2022-08-16T11:00:59;33.90;77.90
58951;DHT22;44730;53.158;6.398;2022-08-16T11:03:25;34.00;77.90
58951;DHT22;44730;53.158;6.398;2022-08-16T11:05:55;34.10;77.70
58951;DHT22;44730;53.158;6.398;2022-08-16T11:08:21;34.50;75.70
58951;DHT22;44730;53.158;6.398;2022-08-16T11:10:48;34.50;73.20
58951;DHT22;44730;53.158;6.398;2022-08-16T11:13:17;34.60;74.80
58951;DHT22;44730;53.158;6.398;2022-08-16T11:15:43;34.80;72.70
58951;DHT22;44730;53.158;6.398;2022-08-16T11:18:11;34.70;72.60
58951;DHT22;44730;53.158;6.398;2022-08-16T11:20:38;35.20;71.60
58951;DHT22;44730;53.158;6.398;2022-08-16T11:23:04;35.80;70.50
58951;DHT22;44730;53.158;6.398;2022-08-16T11:25:31;36.40;68.60
58951;DHT22;44730;53.158;6.398;2022-08-16T11:27:58;36.90;68.30
58951;DHT22;44730;53.158;6.398;2022-08-16T11:30:27;37.40;66.40
58951;DHT22;44730;53.158;6.398;2022-08-16T11:32:59;37.80;65.80
58951;DHT22;44730;53.158;6.398;2022-08-16T11:35:30;37.80;64.90
58951;DHT22;44730;53.158;6.398;2022-08-16T11:37:59;37.90;64.80
58951;DHT22;44730;53.158;6.398;2022-08-16T11:40:28;37.70;62.30
58951;DHT22;44730;53.158;6.398;2022-08-16T11:42:56;37.30;61.90
58951;DHT22;44730;53.158;6.398;2022-08-16T11:45:23;37.20;62.60
58951;DHT22;44730;53.158;6.398;2022-08-16T11:47:49;37.10;62.60
58951;DHT22;44730;53.158;6.398;2022-08-16T11:50:15;37.00;60.90
58951;DHT22;44730;53.158;6.398;2022-08-16T11:52:41;36.80;60.90
58951;DHT22;44730;53.158;6.398;2022-08-16T11:55:11;36.40;60.10
58951;DHT22;44730;53.158;6.398;2022-08-16T11:57:37;36.10;61.80
58951;DHT22;44730;53.158;6.398;2022-08-16T12:00:07;35.70;60.80
58951;DHT22;44730;53.158;6.398;2022-08-16T12:02:36;35.60;60.50
58951;DHT22;44730;53.158;6.398;2022-08-16T12:05:03;35.60;60.60
58951;DHT22;44730;53.158;6.398;2022-08-16T12:07:29;35.80;61.10
58951;DHT22;44730;53.158;6.398;2022-08-16T12:09:55;35.60;60.40
58951;DHT22;44730;53.158;6.398;2022-08-16T12:12:21;35.10;60.80
58951;DHT22;44730;53.158;6.398;2022-08-16T12:14:47;35.10;61.30
58951;DHT22;44730;53.158;6.398;2022-08-16T12:17:13;35.10;60.50
58951;DHT22;44730;53.158;6.398;2022-08-16T12:19:39;35.30;59.10
58951;DHT22;44730;53.158;6.398;2022-08-16T12:22:05;35.60;59.70
58951;DHT22;44730;53.158;6.398;2022-08-16T12:24:31;35.90;59.40
58951;DHT22;44730;53.158;6.398;2022-08-16T12:26:57;36.00;59.30
58951;DHT22;44730;53.158;6.398;2022-08-16T12:29:23;35.90;58.80
58951;DHT22;44730;53.158;6.398;2022-08-16T12:31:49;36.00;58.70
58951;DHT22;44730;53.158;6.398;2022-08-16T12:34:17;36.10;59.00
58951;DHT22;44730;53.158;6.398;2022-08-16T12:36:42;36.30;59.20
58951;DHT22;44730;53.158;6.398;2022-08-16T12:39:08;36.30;58.60
58951;DHT22;44730;53.158;6.398;2022-08-16T12:41:34;36.50;58.00
58951;DHT22;44730;53.158;6.398;2022-08-16T12:44:03;36.70;58.60
58951;DHT22;44730;53.158;6.398;2022-08-16T12:46:32;36.70;59.20
58951;DHT22;44730;53.158;6.398;2022-08-16T12:49:02;37.30;60.00
58951;DHT22;44730;53.158;6.398;2022-08-16T12:51:34;38.00;58.80
58951;DHT22;44730;53.158;6.398;2022-08-16T12:54:02;38.00;58.60
58951;DHT22;44730;53.158;6.398;2022-08-16T12:56:33;37.90;58.80
58951;DHT22;44730;53.158;6.398;2022-08-16T12:59:00;37.90;60.00
58951;DHT22;44730;53.158;6.398;2022-08-16T13:01:32;38.00;58.40
58951;DHT22;44730;53.158;6.398;2022-08-16T13:04:00;38.20;60.00
58951;DHT22;44730;53.158;6.398;2022-08-16T13:06:28;38.30;59.20
58951;DHT22;44730;53.158;6.398;2022-08-16T13:08:55;38.30;56.90
58951;DHT22;44730;53.158;6.398;2022-08-16T13:11:33;38.10;57.00
58951;DHT22;44730;53.158;6.398;2022-08-16T13:13:59;37.80;59.00
58951;DHT22;44730;53.158;6.398;2022-08-16T13:16:26;37.50;59.10
58951;DHT22;44730;53.158;6.398;2022-08-16T13:18:52;37.20;57.70
58951;DHT22;44730;53.158;6.398;2022-08-16T13:21:18;37.00;59.00
58951;DHT22;44730;53.158;6.398;2022-08-16T13:23:44;36.50;59.00
58951;DHT22;44730;53.158;6.398;2022-08-16T13:26:10;35.90;59.00
58951;DHT22;44730;53.158;6.398;2022-08-16T13:28:37;35.60;60.30
58951;DHT22;44730;53.158;6.398;2022-08-16T13:31:03;35.30;60.00
58951;DHT22;44730;53.158;6.398;2022-08-16T13:33:37;35.20;60.60
58951;DHT22;44730;53.158;6.398;2022-08-16T13:36:07;35.30;61.50
58951;DHT22;44730;53.158;6.398;2022-08-16T13:38:39;35.10;61.30
58951;DHT22;44730;53.158;6.398;2022-08-16T13:41:08;34.90;62.10
58951;DHT22;44730;53.158;6.398;2022-08-16T13:43:40;34.60;61.70
58951;DHT22;44730;53.158;6.398;2022-08-16T13:46:06;34.70;61.70
58951;DHT22;44730;53.158;6.398;2022-08-16T13:48:33;35.10;61.00
58951;DHT22;44730;53.158;6.398;2022-08-16T13:51:00;35.60;60.80
58951;DHT22;44730;53.158;6.398;2022-08-16T13:53:26;36.00;59.40
58951;DHT22;44730;53.158;6.398;2022-08-16T13:55:54;36.10;58.10
58951;DHT22;44730;53.158;6.398;2022-08-16T13:58:26;36.50;58.90
58951;DHT22;44730;53.158;6.398;2022-08-16T14:00:52;37.10;58.80
58951;DHT22;44730;53.158;6.398;2022-08-16T14:03:18;37.30;57.00
58951;DHT22;44730;53.158;6.398;2022-08-16T14:05:45;37.60;56.70
58951;DHT22;44730;53.158;6.398;2022-08-16T14:08:11;38.00;57.00
58951;DHT22;44730;53.158;6.398;2022-08-16T14:10:36;38.10;56.60
58951;DHT22;44730;53.158;6.398;2022-08-16T14:13:03;37.90;56.90
58951;DHT22;44730;53.158;6.398;2022-08-16T14:15:31;38.00;57.30
58951;DHT22;44730;53.158;6.398;2022-08-16T14:17:57;37.80;57.10
58951;DHT22;44730;53.158;6.398;2022-08-16T14:20:23;37.60;57.60
58951;DHT22;44730;53.158;6.398;2022-08-16T14:22:50;37.60;58.80
58951;DHT22;44730;53.158;6.398;2022-08-16T14:25:18;37.60;58.50
58951;DHT22;44730;53.158;6.398;2022-08-16T14:27:46;37.50;59.90
58951;DHT22;44730;53.158;6.398;2022-08-16T14:30:15;37.80;58.90
58951;DHT22;44730;53.158;6.398;2022-08-16T14:32:42;38.10;58.50
58951;DHT22;44730;53.158;6.398;2022-08-16T14:35:12;37.40;58.40
58951;DHT22;44730;53.158;6.398;2022-08-16T14:37:38;36.70;58.80
58951;DHT22;44730;53.158;6.398;2022-08-16T14:40:07;36.30;60.10
58951;DHT22;44730;53.158;6.398;2022-08-16T14:42:33;35.70;59.70
58951;DHT22;44730;53.158;6.398;2022-08-16T14:44:59;35.00;60.50
58951;DHT22;44730;53.158;6.398;2022-08-16T14:47:26;34.50;61.30
58951;DHT22;44730;53.158;6.398;2022-08-16T14:49:52;34.10;62.00
58951;DHT22;44730;53.158;6.398;2022-08-16T14:52:19;33.70;63.20
58951;DHT22;44730;53.158;6.398;2022-08-16T14:54:47;33.40;63.90
58951;DHT22;44730;53.158;6.398;2022-08-16T14:57:16;33.10;65.00
58951;DHT22;44730;53.158;6.398;2022-08-16T14:59:43;32.80;65.50
58951;DHT22;44730;53.158;6.398;2022-08-16T15:02:20;32.50;65.70
58951;DHT22;44730;53.158;6.398;2022-08-16T15:04:46;32.20;65.70
58951;DHT22;44730;53.158;6.398;2022-08-16T15:07:12;31.90;66.70
58951;DHT22;44730;53.158;6.398;2022-08-16T15:09:41;32.00;67.80
58951;DHT22;44730;53.158;6.398;2022-08-16T15:12:10;32.00;67.90
58951;DHT22;44730;53.158;6.398;2022-08-16T15:14:39;32.00;67.00
58951;DHT22;44730;53.158;6.398;2022-08-16T15:17:05;32.10;67.00
58951;DHT22;44730;53.158;6.398;2022-08-16T15:19:32;32.40;66.60
58951;DHT22;44730;53.158;6.398;2022-08-16T15:21:57;32.90;65.20
58951;DHT22;44730;53.158;6.398;2022-08-16T15:24:24;33.50;64.60
58951;DHT22;44730;53.158;6.398;2022-08-16T15:26:50;34.10;63.50
58951;DHT22;44730;53.158;6.398;2022-08-16T15:29:17;34.30;62.80
58951;DHT22;44730;53.158;6.398;2022-08-16T15:31:44;34.30;62.70
58951;DHT22;44730;53.158;6.398;2022-08-16T15:34:11;33.90;62.60